createdAt,value
2016-08-27T00:00:47.918Z,0
2016-08-27T00:01:48.079Z,0
2016-08-27T00:02:47.819Z,0
2016-08-27T00:03:47.572Z,0
2016-08-27T00:04:47.536Z,0
2016-08-27T00:05:47.480Z,0
2016-08-27T00:06:47.444Z,0
2016-08-27T00:07:47.799Z,0
2016-08-27T00:08:47.338Z,0
2016-08-27T00:09:47.724Z,0
2016-08-27T00:10:47.272Z,0
2016-08-27T00:11:47.225Z,0
2016-08-27T00:12:47.180Z,0
2016-08-27T00:13:47.345Z,0
2016-08-27T00:14:47.137Z,0
2016-08-27T00:15:47.055Z,0
2016-08-27T00:16:46.395Z,0
2016-08-27T00:17:47.174Z,0
2016-08-27T00:18:46.303Z,0
2016-08-27T00:19:46.218Z,0
2016-08-27T00:20:46.858Z,0
2016-08-27T00:21:46.797Z,0
2016-08-27T00:22:46.777Z,0
2016-08-27T00:23:47.323Z,0
2016-08-27T00:24:46.884Z,0
2016-08-27T00:25:46.685Z,0
2016-08-27T00:26:46.593Z,0
2016-08-27T00:27:46.542Z,0
2016-08-27T00:28:46.502Z,0
2016-08-27T00:29:46.474Z,0
2016-08-27T00:30:46.429Z,0
2016-08-27T00:31:44.993Z,0
2016-08-27T00:32:46.354Z,0
2016-08-27T00:33:46.322Z,0
2016-08-27T00:34:45.085Z,0
2016-08-27T00:35:46.273Z,0
2016-08-27T00:36:46.590Z,0
2016-08-27T00:37:46.130Z,0
2016-08-27T00:38:46.096Z,0
2016-08-27T00:39:46.859Z,0
2016-08-27T00:40:46.205Z,0
2016-08-27T00:41:45.964Z,0
2016-08-27T00:42:45.906Z,0
2016-08-27T00:43:45.882Z,0
2016-08-27T00:44:45.843Z,0
2016-08-27T00:45:45.779Z,0
2016-08-27T00:46:46.042Z,0
2016-08-27T00:47:45.906Z,0
2016-08-27T00:48:45.739Z,0
2016-08-27T00:49:45.823Z,0
2016-08-27T00:50:45.583Z,0
2016-08-27T00:51:45.546Z,0
2016-08-27T00:52:45.703Z,0
2016-08-27T00:53:45.854Z,0
2016-08-27T00:54:45.469Z,0
2016-08-27T00:55:45.588Z,0
2016-08-27T00:56:45.374Z,0
2016-08-27T00:57:45.282Z,0
2016-08-27T00:58:44.543Z,0
2016-08-27T00:59:43.803Z,0
2016-08-27T01:00:44.468Z,0
2016-08-27T01:01:45.522Z,0
2016-08-27T01:02:45.085Z,0
2016-08-27T01:03:45.031Z,0
2016-08-27T01:04:45.439Z,0
2016-08-27T01:05:45.163Z,0
2016-08-27T01:06:45.325Z,0
2016-08-27T01:07:44.878Z,0
2016-08-27T01:08:44.103Z,0
2016-08-27T01:09:44.089Z,0
2016-08-27T01:10:45.071Z,0
2016-08-27T01:11:44.936Z,0
2016-08-27T01:12:44.863Z,0
2016-08-27T01:13:44.597Z,0
2016-08-27T01:14:44.574Z,0
2016-08-27T01:15:44.522Z,0
2016-08-27T01:16:43.792Z,0
2016-08-27T01:17:44.666Z,0
2016-08-27T01:18:44.434Z,0
2016-08-27T01:19:44.365Z,0
2016-08-27T01:20:44.334Z,0
2016-08-27T01:21:44.675Z,0
2016-08-27T01:22:44.442Z,0
2016-08-27T01:23:44.185Z,0
2016-08-27T01:24:43.454Z,0
2016-08-27T01:25:44.319Z,0
2016-08-27T01:26:44.076Z,0
2016-08-27T01:27:43.503Z,0
2016-08-27T01:28:44.185Z,0
2016-08-27T01:29:43.925Z,0
2016-08-27T01:30:44.143Z,0
2016-08-27T01:31:44.116Z,0
2016-08-27T01:32:43.829Z,0
2016-08-27T01:33:43.057Z,0
2016-08-27T01:34:43.047Z,0
2016-08-27T01:35:43.303Z,0
2016-08-27T01:36:43.648Z,0
2016-08-27T01:37:42.905Z,0
2016-08-27T01:38:43.636Z,0
2016-08-27T01:39:43.503Z,0
2016-08-27T01:40:43.463Z,0
2016-08-27T01:41:43.843Z,0
2016-08-27T01:42:43.393Z,0
2016-08-27T01:43:43.348Z,0
2016-08-27T01:44:43.284Z,0
2016-08-27T01:45:43.260Z,0
2016-08-27T01:46:43.816Z,0
2016-08-27T01:47:43.188Z,0
2016-08-27T01:48:43.131Z,0
2016-08-27T01:49:43.086Z,0
2016-08-27T01:50:41.871Z,0
2016-08-27T01:51:43.247Z,0
2016-08-27T01:52:43.181Z,0
2016-08-27T01:53:43.133Z,0
2016-08-27T01:54:42.874Z,0
2016-08-27T01:55:42.916Z,0
2016-08-27T01:56:42.804Z,0
2016-08-27T01:57:42.813Z,0
2016-08-27T01:58:42.713Z,0
2016-08-27T01:59:42.660Z,0
2016-08-27T02:00:42.634Z,0
2016-08-27T02:01:41.893Z,0
2016-08-27T02:02:42.754Z,0
2016-08-27T02:03:42.901Z,0
2016-08-27T02:04:42.665Z,0
2016-08-27T02:05:42.714Z,0
2016-08-27T02:06:41.874Z,0
2016-08-27T02:07:42.333Z,0
2016-08-27T02:08:42.893Z,0
2016-08-27T02:09:42.242Z,0
2016-08-27T02:10:41.515Z,0
2016-08-27T02:11:41.643Z,0
2016-08-27T02:12:42.114Z,0
2016-08-27T02:13:41.572Z,0
2016-08-27T02:14:43.053Z,0
2016-08-27T02:15:42.179Z,0
2016-08-27T02:16:42.042Z,0
2016-08-27T02:17:42.104Z,0
2016-08-27T02:18:41.854Z,0
2016-08-27T02:19:41.824Z,0
2016-08-27T02:20:41.805Z,0
2016-08-27T02:21:42.923Z,0
2016-08-27T02:22:41.923Z,0
2016-08-27T02:23:41.149Z,0
2016-08-27T02:24:42.261Z,0
2016-08-27T02:25:41.572Z,0
2016-08-27T02:26:41.526Z,0
2016-08-27T02:27:41.477Z,0
2016-08-27T02:28:41.446Z,0
2016-08-27T02:29:41.592Z,0
2016-08-27T02:30:41.080Z,0
2016-08-27T02:31:41.304Z,0
2016-08-27T02:32:41.576Z,0
2016-08-27T02:33:41.423Z,0
2016-08-27T02:34:41.173Z,0
2016-08-27T02:35:41.752Z,0
2016-08-27T02:36:41.291Z,0
2016-08-27T02:37:41.097Z,0
2016-08-27T02:38:41.024Z,0
2016-08-27T02:39:40.974Z,0
2016-08-27T02:40:40.943Z,0
2016-08-27T02:41:40.942Z,0
2016-08-27T02:42:40.846Z,0
2016-08-27T02:43:40.812Z,0
2016-08-27T02:44:40.767Z,0
2016-08-27T02:45:40.717Z,0
2016-08-27T02:46:40.685Z,0
2016-08-27T02:47:40.845Z,0
2016-08-27T02:48:40.582Z,0
2016-08-27T02:49:40.784Z,0
2016-08-27T02:50:40.511Z,0
2016-08-27T02:51:40.463Z,0
2016-08-27T02:52:40.832Z,0
2016-08-27T02:53:40.771Z,0
2016-08-27T02:54:40.335Z,0
2016-08-27T02:55:39.643Z,0
2016-08-27T02:56:39.567Z,0
2016-08-27T02:57:40.199Z,0
2016-08-27T02:58:40.169Z,0
2016-08-27T02:59:40.122Z,0
2016-08-27T03:00:40.095Z,0
2016-08-27T03:01:40.032Z,0
2016-08-27T03:02:39.993Z,0
2016-08-27T03:03:40.177Z,0
2016-08-27T03:04:40.134Z,0
2016-08-27T03:05:39.858Z,0
2016-08-27T03:06:39.136Z,0
2016-08-27T03:07:39.120Z,0
2016-08-27T03:08:39.855Z,0
2016-08-27T03:09:39.715Z,0
2016-08-27T03:10:39.647Z,0
2016-08-27T03:11:39.608Z,0
2016-08-27T03:12:39.589Z,0
2016-08-27T03:13:39.532Z,0
2016-08-27T03:14:38.903Z,0
2016-08-27T03:15:39.648Z,0
2016-08-27T03:16:39.623Z,0
2016-08-27T03:17:38.674Z,0
2016-08-27T03:18:39.742Z,0
2016-08-27T03:19:39.271Z,0
2016-08-27T03:20:39.222Z,0
2016-08-27T03:21:38.487Z,0
2016-08-27T03:22:39.543Z,0
2016-08-27T03:23:39.174Z,0
2016-08-27T03:24:39.071Z,0
2016-08-27T03:25:38.546Z,0
2016-08-27T03:26:38.987Z,0
2016-08-27T03:27:38.934Z,0
2016-08-27T03:28:38.892Z,0
2016-08-27T03:29:38.912Z,0
2016-08-27T03:30:38.803Z,0
2016-08-27T03:31:38.045Z,0
2016-08-27T03:32:38.913Z,0
2016-08-27T03:33:38.672Z,0
2016-08-27T03:34:39.033Z,0
2016-08-27T03:35:38.593Z,0
2016-08-27T03:36:38.564Z,0
2016-08-27T03:37:38.521Z,0
2016-08-27T03:38:38.464Z,0
2016-08-27T03:39:38.411Z,0
2016-08-27T03:40:38.783Z,0
2016-08-27T03:41:38.530Z,0
2016-08-27T03:42:38.702Z,0
2016-08-27T03:43:38.453Z,0
2016-08-27T03:44:38.195Z,0
2016-08-27T03:45:38.181Z,0
2016-08-27T03:46:37.620Z,0
2016-08-27T03:47:38.083Z,0
2016-08-27T03:48:38.101Z,0
2016-08-27T03:49:37.303Z,0
2016-08-27T03:50:38.162Z,0
2016-08-27T03:51:38.114Z,0
2016-08-27T03:52:37.843Z,0
2016-08-27T03:53:37.822Z,0
2016-08-27T03:54:37.803Z,0
2016-08-27T03:55:37.732Z,0
2016-08-27T03:56:38.102Z,0
2016-08-27T03:57:37.209Z,0
2016-08-27T03:58:37.798Z,0
2016-08-27T03:59:37.643Z,0
2016-08-27T04:00:37.522Z,0
2016-08-27T04:01:37.495Z,0
2016-08-27T04:02:37.440Z,0
2016-08-27T04:03:37.394Z,0
2016-08-27T04:04:37.341Z,0
2016-08-27T04:05:37.512Z,0
2016-08-27T04:06:37.275Z,0
2016-08-27T04:07:37.230Z,0
2016-08-27T04:08:37.180Z,0
2016-08-27T04:09:37.132Z,0
2016-08-27T04:10:37.094Z,0
2016-08-27T04:11:37.073Z,0
2016-08-27T04:12:37.012Z,4
2016-08-27T04:13:36.971Z,4
2016-08-27T04:14:36.936Z,0
2016-08-27T04:15:36.952Z,0
2016-08-27T04:16:37.783Z,4
2016-08-27T04:17:36.833Z,4
2016-08-27T04:18:36.042Z,0
2016-08-27T04:19:36.032Z,4
2016-08-27T04:20:36.733Z,8
2016-08-27T04:21:35.912Z,4
2016-08-27T04:22:36.574Z,8
2016-08-27T04:23:35.841Z,8
2016-08-27T04:24:36.483Z,12
2016-08-27T04:25:36.752Z,12
2016-08-27T04:26:35.925Z,12
2016-08-27T04:27:36.562Z,12
2016-08-27T04:28:36.313Z,16
2016-08-27T04:29:35.572Z,20
2016-08-27T04:30:36.242Z,20
2016-08-27T04:31:36.388Z,24
2016-08-27T04:32:36.563Z,24
2016-08-27T04:33:36.101Z,28
2016-08-27T04:34:35.373Z,28
2016-08-27T04:35:35.538Z,32
2016-08-27T04:36:35.984Z,36
2016-08-27T04:37:35.930Z,36
2016-08-27T04:38:35.896Z,44
2016-08-27T04:39:36.030Z,48
2016-08-27T04:40:35.102Z,52
2016-08-27T04:41:35.941Z,56
2016-08-27T04:42:35.902Z,60
2016-08-27T04:43:34.965Z,64
2016-08-27T04:44:35.631Z,68
2016-08-27T04:45:35.577Z,76
2016-08-27T04:46:35.527Z,80
2016-08-27T04:47:35.688Z,88
2016-08-27T04:48:34.748Z,92
2016-08-27T04:49:35.412Z,100
2016-08-27T04:50:34.695Z,104
2016-08-27T04:51:35.322Z,112
2016-08-27T04:52:35.288Z,120
2016-08-27T04:53:35.233Z,128
2016-08-27T04:54:35.193Z,132
2016-08-27T04:55:34.448Z,140
2016-08-27T04:56:33.709Z,148
2016-08-27T04:57:35.062Z,156
2016-08-27T04:58:35.026Z,164
2016-08-27T04:59:34.274Z,172
2016-08-27T05:00:35.132Z,176
2016-08-27T05:01:35.091Z,184
2016-08-27T05:02:35.301Z,196
2016-08-27T05:03:34.310Z,204
2016-08-27T05:04:34.947Z,212
2016-08-27T05:05:35.340Z,220
2016-08-27T05:06:34.884Z,228
2016-08-27T05:07:34.822Z,240
2016-08-27T05:08:34.951Z,244
2016-08-27T05:09:34.750Z,252
2016-08-27T05:10:34.513Z,260
2016-08-27T05:11:34.465Z,272
2016-08-27T05:12:34.414Z,280
2016-08-27T05:13:34.366Z,288
2016-08-27T05:14:34.934Z,300
2016-08-27T05:15:34.286Z,308
2016-08-27T05:16:34.266Z,320
2016-08-27T05:17:34.195Z,324
2016-08-27T05:18:33.671Z,336
2016-08-27T05:19:34.308Z,348
2016-08-27T05:20:32.889Z,356
2016-08-27T05:21:34.096Z,364
2016-08-27T05:22:33.992Z,372
2016-08-27T05:23:34.354Z,384
2016-08-27T05:24:33.901Z,392
2016-08-27T05:25:34.055Z,404
2016-08-27T05:26:33.814Z,412
2016-08-27T05:27:33.813Z,424
2016-08-27T05:28:34.193Z,432
2016-08-27T05:29:33.195Z,440
2016-08-27T05:30:34.061Z,448
2016-08-27T05:31:33.589Z,460
2016-08-27T05:32:33.550Z,464
2016-08-27T05:33:32.811Z,476
2016-08-27T05:34:33.454Z,480
2016-08-27T05:35:33.423Z,492
2016-08-27T05:36:33.603Z,500
2016-08-27T05:37:33.342Z,508
2016-08-27T05:38:33.281Z,520
2016-08-27T05:39:33.239Z,528
2016-08-27T05:40:33.403Z,540
2016-08-27T05:41:32.663Z,544
2016-08-27T05:42:33.528Z,552
2016-08-27T05:43:33.270Z,560
2016-08-27T05:44:33.303Z,572
2016-08-27T05:45:32.293Z,580
2016-08-27T05:46:32.263Z,588
2016-08-27T05:47:32.911Z,600
2016-08-27T05:48:32.871Z,604
2016-08-27T05:49:33.213Z,612
2016-08-27T05:50:33.773Z,624
2016-08-27T05:51:32.442Z,632
2016-08-27T05:52:32.174Z,644
2016-08-27T05:53:32.860Z,648
2016-08-27T05:54:32.281Z,660
2016-08-27T05:55:32.607Z,672
2016-08-27T05:56:32.554Z,680
2016-08-27T05:57:32.479Z,692
2016-08-27T05:58:32.444Z,700
2016-08-27T05:59:31.893Z,716
2016-08-27T06:00:32.062Z,728
2016-08-27T06:01:32.501Z,740
2016-08-27T06:02:32.463Z,752
2016-08-27T06:03:32.411Z,764
2016-08-27T06:04:32.194Z,784
2016-08-27T06:05:32.223Z,796
2016-08-27T06:06:32.173Z,808
2016-08-27T06:07:32.119Z,820
2016-08-27T06:08:32.253Z,828
2016-08-27T06:09:32.152Z,844
2016-08-27T06:10:31.414Z,852
2016-08-27T06:11:31.893Z,868
2016-08-27T06:12:32.044Z,880
2016-08-27T06:13:31.800Z,896
2016-08-27T06:14:31.947Z,912
2016-08-27T06:15:31.961Z,928
2016-08-27T06:16:31.673Z,944
2016-08-27T06:17:31.613Z,960
2016-08-27T06:18:31.574Z,972
2016-08-27T06:19:31.523Z,984
2016-08-27T06:20:31.704Z,1000
2016-08-27T06:21:30.804Z,1008
2016-08-27T06:22:30.919Z,1020
2016-08-27T06:23:31.405Z,1036
2016-08-27T06:24:32.583Z,1048
2016-08-27T06:25:31.385Z,1060
2016-08-27T06:26:31.623Z,1072
2016-08-27T06:27:31.591Z,1088
2016-08-27T06:28:30.446Z,1096
2016-08-27T06:29:31.304Z,1112
2016-08-27T06:30:30.366Z,1120
2016-08-27T06:31:31.001Z,1132
2016-08-27T06:32:31.576Z,1144
2016-08-27T06:33:30.933Z,1156
2016-08-27T06:34:31.092Z,1164
2016-08-27T06:35:30.334Z,1184
2016-08-27T06:36:30.111Z,1196
2016-08-27T06:37:30.760Z,1204
2016-08-27T06:38:30.712Z,1220
2016-08-27T06:39:30.664Z,1240
2016-08-27T06:40:30.688Z,1252
2016-08-27T06:41:30.596Z,1272
2016-08-27T06:42:30.613Z,1288
2016-08-27T06:43:30.497Z,1304
2016-08-27T06:44:30.652Z,1312
2016-08-27T06:45:30.597Z,1320
2016-08-27T06:46:30.593Z,1348
2016-08-27T06:47:30.307Z,1368
2016-08-27T06:48:30.524Z,1388
2016-08-27T06:49:30.455Z,1408
2016-08-27T06:50:29.745Z,1432
2016-08-27T06:51:30.222Z,1448
2016-08-27T06:52:29.426Z,1472
2016-08-27T06:53:30.074Z,1504
2016-08-27T06:54:30.021Z,1532
2016-08-27T06:55:29.983Z,1560
2016-08-27T06:56:29.230Z,1584
2016-08-27T06:57:29.904Z,1608
2016-08-27T06:58:29.306Z,1632
2016-08-27T06:59:30.051Z,1652
2016-08-27T07:00:29.126Z,1684
2016-08-27T07:01:28.342Z,1708
2016-08-27T07:02:29.894Z,1736
2016-08-27T07:03:29.672Z,1764
2016-08-27T07:04:29.612Z,1792
2016-08-27T07:05:29.962Z,1816
2016-08-27T07:06:29.713Z,1836
2016-08-27T07:07:29.533Z,1868
2016-08-27T07:08:28.733Z,1900
2016-08-27T07:09:28.994Z,1932
2016-08-27T07:10:29.546Z,1968
2016-08-27T07:11:29.712Z,2000
2016-08-27T07:12:30.182Z,2036
2016-08-27T07:13:28.522Z,2068
2016-08-27T07:14:30.023Z,2108
2016-08-27T07:15:29.199Z,2140
2016-08-27T07:16:28.417Z,2152
2016-08-27T07:17:29.073Z,2168
2016-08-27T07:18:27.815Z,2188
2016-08-27T07:19:28.258Z,2224
2016-08-27T07:20:28.642Z,2240
2016-08-27T07:21:28.893Z,2276
2016-08-27T07:22:27.641Z,2296
2016-08-27T07:23:29.013Z,2324
2016-08-27T07:24:28.761Z,2340
2016-08-27T07:25:28.273Z,2368
2016-08-27T07:26:28.679Z,2404
2016-08-27T07:27:27.944Z,2436
2016-08-27T07:28:28.121Z,2456
2016-08-27T07:29:28.535Z,2492
2016-08-27T07:30:28.487Z,2516
2016-08-27T07:31:28.660Z,2548
2016-08-27T07:32:28.623Z,2568
2016-08-27T07:33:28.569Z,2584
2016-08-27T07:34:27.820Z,2616
2016-08-27T07:35:28.481Z,2648
2016-08-27T07:36:28.240Z,2680
2016-08-27T07:37:28.242Z,2716
2016-08-27T07:38:28.378Z,2748
2016-08-27T07:39:28.151Z,2768
2016-08-27T07:40:26.889Z,2784
2016-08-27T07:41:28.308Z,2812
2016-08-27T07:42:27.514Z,2840
2016-08-27T07:43:27.272Z,2880
2016-08-27T07:44:27.229Z,2920
2016-08-27T07:45:25.764Z,2964
2016-08-27T07:46:27.817Z,2984
2016-08-27T07:47:27.807Z,3032
2016-08-27T07:48:28.156Z,3052
2016-08-27T07:49:27.702Z,3072
2016-08-27T07:50:27.659Z,3092
2016-08-27T07:51:27.910Z,3124
2016-08-27T07:52:27.597Z,3124
2016-08-27T07:53:27.537Z,3140
2016-08-27T07:54:27.682Z,3184
2016-08-27T07:55:27.694Z,3232
2016-08-27T07:56:27.419Z,3260
2016-08-27T07:57:27.369Z,3252
2016-08-27T07:58:27.780Z,3272
2016-08-27T07:59:27.289Z,3296
2016-08-27T08:00:27.244Z,3332
2016-08-27T08:01:27.189Z,3348
2016-08-27T08:02:27.490Z,3380
2016-08-27T08:03:27.122Z,3392
2016-08-27T08:04:27.089Z,3416
2016-08-27T08:05:26.590Z,3444
2016-08-27T08:06:27.239Z,3488
2016-08-27T08:07:26.449Z,3532
2016-08-27T08:08:27.194Z,3568
2016-08-27T08:09:26.172Z,3588
2016-08-27T08:10:27.251Z,3604
2016-08-27T08:11:26.338Z,3604
2016-08-27T08:12:27.187Z,3596
2016-08-27T08:13:26.754Z,3592
2016-08-27T08:14:25.957Z,3596
2016-08-27T08:15:26.632Z,3604
2016-08-27T08:16:26.767Z,3624
2016-08-27T08:17:26.548Z,3664
2016-08-27T08:18:26.986Z,3684
2016-08-27T08:19:26.450Z,3684
2016-08-27T08:20:25.715Z,3676
2016-08-27T08:21:25.681Z,3660
2016-08-27T08:22:25.832Z,3696
2016-08-27T08:23:26.302Z,3712
2016-08-27T08:24:26.246Z,3732
2016-08-27T08:25:26.406Z,3716
2016-08-27T08:26:26.388Z,3736
2016-08-27T08:27:25.423Z,3736
2016-08-27T08:28:26.279Z,3748
2016-08-27T08:29:26.046Z,3756
2016-08-27T08:30:26.280Z,3756
2016-08-27T08:31:25.965Z,3756
2016-08-27T08:32:25.231Z,3736
2016-08-27T08:33:25.183Z,3744
2016-08-27T08:34:25.835Z,3748
2016-08-27T08:35:25.381Z,3736
2016-08-27T08:36:25.063Z,3748
2016-08-27T08:37:26.046Z,3756
2016-08-27T08:38:26.525Z,3784
2016-08-27T08:39:25.844Z,3796
2016-08-27T08:40:25.786Z,3808
2016-08-27T08:41:25.599Z,3836
2016-08-27T08:42:25.564Z,3864
2016-08-27T08:43:25.892Z,3868
2016-08-27T08:44:25.444Z,3852
2016-08-27T08:45:25.414Z,3860
2016-08-27T08:46:25.351Z,3860
2016-08-27T08:47:25.577Z,3852
2016-08-27T08:48:24.774Z,3868
2016-08-27T08:49:25.434Z,3904
2016-08-27T08:50:23.797Z,3908
2016-08-27T08:51:24.472Z,3892
2016-08-27T08:52:24.666Z,3900
2016-08-27T08:53:25.080Z,3920
2016-08-27T08:54:25.452Z,3916
2016-08-27T08:55:23.598Z,3916
2016-08-27T08:56:25.245Z,3916
2016-08-27T08:57:25.931Z,3924
2016-08-27T08:58:24.383Z,3924
2016-08-27T08:59:24.196Z,3928
2016-08-27T09:00:24.166Z,3956
2016-08-27T09:01:24.107Z,3964
2016-08-27T09:02:24.010Z,3980
2016-08-27T09:03:23.999Z,3988
2016-08-27T09:04:23.932Z,4004
2016-08-27T09:05:24.096Z,4008
2016-08-27T09:06:24.561Z,4004
2016-08-27T09:07:23.800Z,3996
2016-08-27T09:08:23.756Z,3992
2016-08-27T09:09:24.121Z,3988
2016-08-27T09:10:23.682Z,3996
2016-08-27T09:11:24.438Z,4000
2016-08-27T09:12:24.282Z,4012
2016-08-27T09:13:24.251Z,4016
2016-08-27T09:14:23.024Z,4020
2016-08-27T09:15:24.179Z,4012
2016-08-27T09:16:23.827Z,4016
2016-08-27T09:17:23.379Z,4000
2016-08-27T09:18:23.378Z,3996
2016-08-27T09:19:23.518Z,4004
2016-08-27T09:20:23.967Z,4000
2016-08-27T09:21:23.218Z,3992
2016-08-27T09:22:23.877Z,3924
2016-08-27T09:23:24.236Z,3804
2016-08-27T09:24:23.830Z,3592
2016-08-27T09:25:24.445Z,3572
2016-08-27T09:26:23.715Z,3568
2016-08-27T09:27:23.687Z,3568
2016-08-27T09:28:23.825Z,3588
2016-08-27T09:29:23.600Z,3580
2016-08-27T09:30:23.802Z,3568
2016-08-27T09:31:22.353Z,3568
2016-08-27T09:32:22.976Z,3568
2016-08-27T09:33:23.440Z,3564
2016-08-27T09:34:22.742Z,3572
2016-08-27T09:35:23.152Z,3556
2016-08-27T09:36:22.167Z,3548
2016-08-27T09:37:23.684Z,3532
2016-08-27T09:38:23.283Z,3584
2016-08-27T09:39:22.513Z,3592
2016-08-27T09:40:22.700Z,3588
2016-08-27T09:41:21.928Z,3588
2016-08-27T09:42:23.081Z,3560
2016-08-27T09:43:23.042Z,3604
2016-08-27T09:44:22.517Z,3600
2016-08-27T09:45:22.679Z,3588
2016-08-27T09:46:22.209Z,3532
2016-08-27T09:47:23.084Z,3556
2016-08-27T09:48:23.057Z,3484
2016-08-27T09:49:23.181Z,3496
2016-08-27T09:50:22.288Z,3476
2016-08-27T09:51:22.931Z,3460
2016-08-27T09:52:22.895Z,3500
2016-08-27T09:53:21.942Z,3496
2016-08-27T09:54:22.609Z,3504
2016-08-27T09:55:21.919Z,3492
2016-08-27T09:56:22.540Z,3536
2016-08-27T09:57:22.471Z,3576
2016-08-27T09:58:21.755Z,3552
2016-08-27T09:59:21.737Z,3564
2016-08-27T10:00:22.352Z,3568
2016-08-27T10:01:22.341Z,3548
2016-08-27T10:02:22.497Z,1592
2016-08-27T10:03:22.250Z,1956
2016-08-27T10:04:22.199Z,1496
2016-08-27T10:05:22.150Z,3368
2016-08-27T10:06:22.093Z,1764
2016-08-27T10:07:22.071Z,3144
2016-08-27T10:08:22.440Z,1372
2016-08-27T10:09:22.198Z,2976
2016-08-27T10:10:21.971Z,3360
2016-08-27T10:11:22.313Z,3376
2016-08-27T10:12:22.079Z,3392
2016-08-27T10:13:21.857Z,3404
2016-08-27T10:14:22.032Z,3408
2016-08-27T10:15:21.463Z,3392
2016-08-27T10:16:21.739Z,3380
2016-08-27T10:17:20.973Z,3380
2016-08-27T10:18:21.636Z,3376
2016-08-27T10:19:21.596Z,3372
2016-08-27T10:20:21.567Z,3384
2016-08-27T10:21:21.519Z,3384
2016-08-27T10:22:21.498Z,3420
2016-08-27T10:23:21.436Z,3400
2016-08-27T10:24:21.391Z,3392
2016-08-27T10:25:21.341Z,3364
2016-08-27T10:26:21.322Z,3324
2016-08-27T10:27:20.100Z,2556
2016-08-27T10:28:21.444Z,1124
2016-08-27T10:29:21.198Z,1260
2016-08-27T10:30:21.161Z,3344
2016-08-27T10:31:21.124Z,1480
2016-08-27T10:32:21.073Z,3468
2016-08-27T10:33:21.242Z,3064
2016-08-27T10:34:20.294Z,1460
2016-08-27T10:35:21.173Z,2616
2016-08-27T10:36:20.911Z,2452
2016-08-27T10:37:20.881Z,1576
2016-08-27T10:38:20.842Z,3460
2016-08-27T10:39:20.842Z,3448
2016-08-27T10:40:19.379Z,3504
2016-08-27T10:41:20.714Z,3512
2016-08-27T10:42:20.682Z,3448
2016-08-27T10:43:19.961Z,3376
2016-08-27T10:44:20.612Z,3392
2016-08-27T10:45:20.781Z,3312
2016-08-27T10:46:20.531Z,3720
2016-08-27T10:47:19.160Z,3728
2016-08-27T10:48:20.434Z,3704
2016-08-27T10:49:20.606Z,3640
2016-08-27T10:50:20.370Z,3596
2016-08-27T10:51:19.670Z,3540
2016-08-27T10:52:20.492Z,3500
2016-08-27T10:53:20.677Z,3464
2016-08-27T10:54:20.209Z,3448
2016-08-27T10:55:20.156Z,3412
2016-08-27T10:56:20.143Z,3416
2016-08-27T10:57:20.090Z,3448
2016-08-27T10:58:20.078Z,3492
2016-08-27T10:59:20.037Z,3496
2016-08-27T11:00:20.177Z,3488
2016-08-27T11:01:19.927Z,3512
2016-08-27T11:02:19.899Z,3500
2016-08-27T11:03:20.114Z,3488
2016-08-27T11:04:19.833Z,3160
2016-08-27T11:05:19.796Z,3204
2016-08-27T11:06:19.962Z,3252
2016-08-27T11:07:19.703Z,3252
2016-08-27T11:08:19.903Z,3236
2016-08-27T11:09:19.810Z,3248
2016-08-27T11:10:19.647Z,3236
2016-08-27T11:11:19.542Z,3208
2016-08-27T11:12:19.490Z,1212
2016-08-27T11:13:19.442Z,1148
2016-08-27T11:14:19.433Z,1148
2016-08-27T11:15:19.383Z,1804
2016-08-27T11:16:19.350Z,3412
2016-08-27T11:17:17.913Z,3384
2016-08-27T11:18:19.476Z,3428
2016-08-27T11:19:19.242Z,3448
2016-08-27T11:20:18.923Z,3172
2016-08-27T11:21:19.175Z,3676
2016-08-27T11:22:19.179Z,3688
2016-08-27T11:23:19.070Z,3688
2016-08-27T11:24:19.248Z,3684
2016-08-27T11:25:18.991Z,3688
2016-08-27T11:26:19.169Z,3612
2016-08-27T11:27:18.910Z,3720
2016-08-27T11:28:19.089Z,3736
2016-08-27T11:29:19.251Z,3728
2016-08-27T11:30:19.219Z,3752
2016-08-27T11:31:18.810Z,3780
2016-08-27T11:32:18.730Z,3812
2016-08-27T11:33:18.878Z,3776
2016-08-27T11:34:18.630Z,3796
2016-08-27T11:35:18.619Z,3788
2016-08-27T11:36:18.568Z,3788
2016-08-27T11:37:18.538Z,3820
2016-08-27T11:38:18.499Z,3816
2016-08-27T11:39:18.448Z,3820
2016-08-27T11:40:17.907Z,3840
2016-08-27T11:41:18.392Z,3820
2016-08-27T11:42:18.534Z,3828
2016-08-27T11:43:18.366Z,3856
2016-08-27T11:44:18.456Z,3880
2016-08-27T11:45:17.715Z,3876
2016-08-27T11:46:18.395Z,3844
2016-08-27T11:47:18.157Z,3828
2016-08-27T11:48:17.399Z,3872
2016-08-27T11:49:17.576Z,3884
2016-08-27T11:50:18.018Z,3908
2016-08-27T11:51:18.590Z,3912
2016-08-27T11:52:18.143Z,3920
2016-08-27T11:53:17.916Z,3936
2016-08-27T11:54:18.073Z,3948
2016-08-27T11:55:18.031Z,3948
2016-08-27T11:56:18.007Z,3968
2016-08-27T11:57:17.753Z,3988
2016-08-27T11:58:17.922Z,3960
2016-08-27T11:59:16.991Z,3968
2016-08-27T12:00:17.661Z,3968
2016-08-27T12:01:17.819Z,3996
2016-08-27T12:02:17.555Z,4004
2016-08-27T12:03:17.748Z,4016
2016-08-27T12:04:16.992Z,4004
2016-08-27T12:05:17.451Z,4048
2016-08-27T12:06:17.410Z,4080
2016-08-27T12:07:17.570Z,4056
2016-08-27T12:08:17.339Z,4052
2016-08-27T12:09:17.290Z,4064
2016-08-27T12:10:17.248Z,4044
2016-08-27T12:11:17.678Z,4048
2016-08-27T12:12:17.416Z,4056
2016-08-27T12:13:16.432Z,4064
2016-08-27T12:14:17.151Z,4096
2016-08-27T12:15:17.267Z,4104
2016-08-27T12:16:17.442Z,4180
2016-08-27T12:17:17.208Z,4168
2016-08-27T12:18:16.948Z,4176
2016-08-27T12:19:16.920Z,4128
2016-08-27T12:20:17.086Z,4096
2016-08-27T12:21:16.837Z,4128
2016-08-27T12:22:16.102Z,4140
2016-08-27T12:23:16.975Z,4156
2016-08-27T12:24:16.736Z,4172
2016-08-27T12:25:16.897Z,4192
2016-08-27T12:26:16.636Z,4200
2016-08-27T12:27:16.605Z,4208
2016-08-27T12:28:16.601Z,4208
2016-08-27T12:29:16.534Z,4188
2016-08-27T12:30:16.918Z,4176
2016-08-27T12:31:16.457Z,4168
2016-08-27T12:32:16.825Z,4160
2016-08-27T12:33:16.604Z,4144
2016-08-27T12:34:16.331Z,4160
2016-08-27T12:35:16.518Z,4176
2016-08-27T12:36:16.275Z,4184
2016-08-27T12:37:16.231Z,4208
2016-08-27T12:38:15.497Z,4232
2016-08-27T12:39:16.172Z,4200
2016-08-27T12:40:16.140Z,4164
2016-08-27T12:41:16.076Z,4232
2016-08-27T12:42:16.243Z,4304
2016-08-27T12:43:16.045Z,4284
2016-08-27T12:44:15.972Z,4284
2016-08-27T12:45:15.933Z,4300
2016-08-27T12:46:15.899Z,4244
2016-08-27T12:47:16.453Z,2584
2016-08-27T12:48:15.814Z,1780
2016-08-27T12:49:16.008Z,1464
2016-08-27T12:50:15.034Z,1200
2016-08-27T12:51:15.693Z,1000
2016-08-27T12:52:15.654Z,992
2016-08-27T12:53:16.254Z,1980
2016-08-27T12:54:15.597Z,2704
2016-08-27T12:55:15.552Z,2956
2016-08-27T12:56:15.548Z,4080
2016-08-27T12:57:15.497Z,4568
2016-08-27T12:58:14.744Z,4656
2016-08-27T12:59:15.399Z,3536
2016-08-27T13:00:15.973Z,3400
2016-08-27T13:01:15.523Z,2780
2016-08-27T13:02:15.294Z,2236
2016-08-27T13:03:15.255Z,2476
2016-08-27T13:04:15.217Z,2276
2016-08-27T13:05:15.368Z,1948
2016-08-27T13:06:15.345Z,1488
2016-08-27T13:07:14.394Z,1308
2016-08-27T13:08:15.267Z,1248
2016-08-27T13:09:14.530Z,3304
2016-08-27T13:10:14.994Z,4704
2016-08-27T13:11:14.944Z,4624
2016-08-27T13:12:14.904Z,4564
2016-08-27T13:13:15.072Z,4284
2016-08-27T13:14:14.147Z,4320
2016-08-27T13:15:14.092Z,4516
2016-08-27T13:16:14.972Z,4636
2016-08-27T13:17:14.734Z,4628
2016-08-27T13:18:14.683Z,4552
2016-08-27T13:19:14.870Z,4800
2016-08-27T13:20:14.644Z,4632
2016-08-27T13:21:14.598Z,4240
2016-08-27T13:22:14.542Z,3888
2016-08-27T13:23:14.493Z,4308
2016-08-27T13:24:14.461Z,4456
2016-08-27T13:25:14.443Z,4788
2016-08-27T13:26:14.384Z,4832
2016-08-27T13:27:14.354Z,4612
2016-08-27T13:28:14.514Z,4648
2016-08-27T13:29:14.481Z,4760
2016-08-27T13:30:14.244Z,4892
2016-08-27T13:31:15.022Z,4892
2016-08-27T13:32:14.183Z,4736
2016-08-27T13:33:12.740Z,4848
2016-08-27T13:34:13.595Z,5024
2016-08-27T13:35:14.050Z,5100
2016-08-27T13:36:14.213Z,5084
2016-08-27T13:37:13.971Z,5116
2016-08-27T13:38:13.643Z,5124
2016-08-27T13:39:13.904Z,5180
2016-08-27T13:40:13.864Z,5240
2016-08-27T13:41:13.828Z,5236
2016-08-27T13:42:13.992Z,5296
2016-08-27T13:43:13.765Z,5332
2016-08-27T13:44:13.009Z,5364
2016-08-27T13:45:13.765Z,5412
2016-08-27T13:46:13.650Z,5408
2016-08-27T13:47:12.902Z,5424
2016-08-27T13:48:12.901Z,5436
2016-08-27T13:49:13.801Z,5484